sensor_id;sensor_type;location;lat;lon;timestamp;P1;durP1;ratioP1;P2;durP2;ratioP2
19191;SDS011;9728;48.194;16.346;2023-04-24T00:03:00;2.60;;;1.95;;
19191;SDS011;9728;48.194;16.346;2023-04-24T00:08:04;1.92;;;1.60;;
19191;SDS011;9728;48.194;16.346;2023-04-24T00:13:08;2.95;;;1.95;;
19191;SDS011;9728;48.194;16.346;2023-04-24T00:18:13;2.47;;;1.60;;
19191;SDS011;9728;48.194;16.346;2023-04-24T00:23:16;2.25;;;1.88;;
19191;SDS011;9728;48.194;16.346;2023-04-24T00:28:20;2.42;;;2.15;;
19191;SDS011;9728;48.194;16.346;2023-04-24T00:33:25;2.65;;;2.00;;
19191;SDS011;9728;48.194;16.346;2023-04-24T00:38:28;3.22;;;2.30;;
19191;SDS011;9728;48.194;16.346;2023-04-24T00:43:32;2.17;;;1.92;;
19191;SDS011;9728;48.194;16.346;2023-04-24T00:48:37;3.40;;;1.90;;
19191;SDS011;9728;48.194;16.346;2023-04-24T00:53:41;2.10;;;1.83;;
19191;SDS011;9728;48.194;16.346;2023-04-24T00:58:45;2.22;;;1.90;;
19191;SDS011;9728;48.194;16.346;2023-04-24T01:03:51;2.83;;;1.73;;
19191;SDS011;9728;48.194;16.346;2023-04-24T01:08:55;2.70;;;1.92;;
19191;SDS011;9728;48.194;16.346;2023-04-24T01:13:58;2.33;;;1.90;;
19191;SDS011;9728;48.194;16.346;2023-04-24T01:19:04;2.88;;;2.00;;
19191;SDS011;9728;48.194;16.346;2023-04-24T01:24:11;2.78;;;1.83;;
19191;SDS011;9728;48.194;16.346;2023-04-24T01:29:15;3.15;;;2.30;;
19191;SDS011;9728;48.194;16.346;2023-04-24T01:34:18;2.38;;;2.15;;
19191;SDS011;9728;48.194;16.346;2023-04-24T01:39:24;2.28;;;2.00;;
19191;SDS011;9728;48.194;16.346;2023-04-24T01:44:30;5.00;;;2.28;;
19191;SDS011;9728;48.194;16.346;2023-04-24T01:49:33;2.83;;;2.20;;
19191;SDS011;9728;48.194;16.346;2023-04-24T01:54:40;2.75;;;2.30;;
19191;SDS011;9728;48.194;16.346;2023-04-24T01:59:44;4.38;;;2.30;;
19191;SDS011;9728;48.194;16.346;2023-04-24T02:04:48;3.42;;;1.90;;
19191;SDS011;9728;48.194;16.346;2023-04-24T02:09:53;2.13;;;1.80;;
19191;SDS011;9728;48.194;16.346;2023-04-24T02:14:57;2.00;;;1.77;;
19191;SDS011;9728;48.194;16.346;2023-04-24T02:20:01;2.15;;;1.75;;
19191;SDS011;9728;48.194;16.346;2023-04-24T02:25:07;2.00;;;1.73;;
19191;SDS011;9728;48.194;16.346;2023-04-24T02:30:11;1.45;;;1.20;;
19191;SDS011;9728;48.194;16.346;2023-04-24T02:35:15;1.48;;;1.30;;
19191;SDS011;9728;48.194;16.346;2023-04-24T02:40:20;1.90;;;1.17;;
19191;SDS011;9728;48.194;16.346;2023-04-24T02:45:23;1.52;;;1.38;;
19191;SDS011;9728;48.194;16.346;2023-04-24T02:50:27;1.83;;;1.30;;
19191;SDS011;9728;48.194;16.346;2023-04-24T02:55:32;1.40;;;1.25;;
19191;SDS011;9728;48.194;16.346;2023-04-24T03:00:37;2.25;;;1.58;;
19191;SDS011;9728;48.194;16.346;2023-04-24T03:05:41;1.30;;;1.20;;
19191;SDS011;9728;48.194;16.346;2023-04-24T03:10:46;1.13;;;1.02;;
19191;SDS011;9728;48.194;16.346;2023-04-24T03:15:49;2.33;;;1.25;;
19191;SDS011;9728;48.194;16.346;2023-04-24T03:20:54;1.10;;;1.00;;
19191;SDS011;9728;48.194;16.346;2023-04-24T03:25:59;1.20;;;1.10;;
19191;SDS011;9728;48.194;16.346;2023-04-24T03:31:04;2.25;;;1.50;;
19191;SDS011;9728;48.194;16.346;2023-04-24T03:36:10;1.25;;;1.15;;
19191;SDS011;9728;48.194;16.346;2023-04-24T03:41:16;1.27;;;1.17;;
19191;SDS011;9728;48.194;16.346;2023-04-24T03:46:24;1.58;;;1.10;;
19191;SDS011;9728;48.194;16.346;2023-04-24T03:51:31;1.27;;;1.17;;
19191;SDS011;9728;48.194;16.346;2023-04-24T03:56:46;1.55;;;1.45;;
19191;SDS011;9728;48.194;16.346;2023-04-24T04:01:50;1.40;;;1.10;;
19191;SDS011;9728;48.194;16.346;2023-04-24T04:06:54;1.23;;;1.02;;
19191;SDS011;9728;48.194;16.346;2023-04-24T04:12:01;3.60;;;1.20;;
19191;SDS011;9728;48.194;16.346;2023-04-24T04:17:06;1.20;;;1.10;;
19191;SDS011;9728;48.194;16.346;2023-04-24T04:22:10;2.03;;;1.10;;
19191;SDS011;9728;48.194;16.346;2023-04-24T04:27:23;1.20;;;1.00;;
19191;SDS011;9728;48.194;16.346;2023-04-24T04:32:37;1.10;;;0.90;;
19191;SDS011;9728;48.194;16.346;2023-04-24T04:37:42;0.95;;;0.85;;
19191;SDS011;9728;48.194;16.346;2023-04-24T04:42:58;1.13;;;1.02;;
19191;SDS011;9728;48.194;16.346;2023-04-24T04:48:10;1.30;;;1.17;;
19191;SDS011;9728;48.194;16.346;2023-04-24T04:53:15;0.93;;;0.82;;
19191;SDS011;9728;48.194;16.346;2023-04-24T04:58:21;1.35;;;1.08;;
19191;SDS011;9728;48.194;16.346;2023-04-24T05:03:29;1.52;;;1.20;;
19191;SDS011;9728;48.194;16.346;2023-04-24T05:08:38;1.10;;;1.00;;
19191;SDS011;9728;48.194;16.346;2023-04-24T05:13:49;1.27;;;1.10;;
19191;SDS011;9728;48.194;16.346;2023-04-24T05:18:58;2.03;;;0.88;;
19191;SDS011;9728;48.194;16.346;2023-04-24T05:24:07;1.20;;;1.10;;
19191;SDS011;9728;48.194;16.346;2023-04-24T05:29:42;2.00;;;1.20;;
19191;SDS011;9728;48.194;16.346;2023-04-24T05:34:47;1.50;;;0.98;;
19191;SDS011;9728;48.194;16.346;2023-04-24T05:39:51;3.63;;;1.15;;
19191;SDS011;9728;48.194;16.346;2023-04-24T05:44:56;1.35;;;1.10;;
19191;SDS011;9728;48.194;16.346;2023-04-24T05:50:00;2.55;;;1.23;;
19191;SDS011;9728;48.194;16.346;2023-04-24T05:55:04;3.13;;;1.35;;
19191;SDS011;9728;48.194;16.346;2023-04-24T06:00:13;4.35;;;1.25;;
19191;SDS011;9728;48.194;16.346;2023-04-24T06:05:24;2.10;;;0.98;;
19191;SDS011;9728;48.194;16.346;2023-04-24T06:10:28;2.05;;;1.10;;
19191;SDS011;9728;48.194;16.346;2023-04-24T06:15:34;1.42;;;1.25;;
19191;SDS011;9728;48.194;16.346;2023-04-24T06:20:43;1.08;;;0.98;;
19191;SDS011;9728;48.194;16.346;2023-04-24T06:25:47;1.23;;;1.13;;
19191;SDS011;9728;48.194;16.346;2023-04-24T06:30:53;1.02;;;0.93;;
19191;SDS011;9728;48.194;16.346;2023-04-24T06:35:57;1.10;;;1.00;;
19191;SDS011;9728;48.194;16.346;2023-04-24T06:41:00;1.17;;;1.00;;
19191;SDS011;9728;48.194;16.346;2023-04-24T06:46:06;0.95;;;0.85;;
19191;SDS011;9728;48.194;16.346;2023-04-24T06:51:09;0.98;;;0.98;;
19191;SDS011;9728;48.194;16.346;2023-04-24T06:56:13;1.10;;;1.00;;
19191;SDS011;9728;48.194;16.346;2023-04-24T07:01:18;1.70;;;1.05;;
19191;SDS011;9728;48.194;16.346;2023-04-24T07:06:22;1.73;;;1.10;;
19191;SDS011;9728;48.194;16.346;2023-04-24T07:11:25;2.70;;;1.20;;
19191;SDS011;9728;48.194;16.346;2023-04-24T07:16:32;1.98;;;0.80;;
19191;SDS011;9728;48.194;16.346;2023-04-24T07:21:36;1.00;;;0.90;;
19191;SDS011;9728;48.194;16.346;2023-04-24T07:26:39;1.25;;;0.80;;
19191;SDS011;9728;48.194;16.346;2023-04-24T07:31:44;1.13;;;1.02;;
19191;SDS011;9728;48.194;16.346;2023-04-24T07:36:48;1.88;;;1.17;;
19191;SDS011;9728;48.194;16.346;2023-04-24T07:41:52;0.85;;;0.80;;
19191;SDS011;9728;48.194;16.346;2023-04-24T07:46:57;1.80;;;1.10;;
19191;SDS011;9728;48.194;16.346;2023-04-24T07:52:01;1.10;;;0.70;;
19191;SDS011;9728;48.194;16.346;2023-04-24T07:57:04;0.90;;;0.70;;
19191;SDS011;9728;48.194;16.346;2023-04-24T08:02:11;1.00;;;0.90;;
19191;SDS011;9728;48.194;16.346;2023-04-24T08:07:14;0.98;;;0.85;;
19191;SDS011;9728;48.194;16.346;2023-04-24T08:12:18;1.63;;;0.75;;
19191;SDS011;9728;48.194;16.346;2023-04-24T08:17:23;0.95;;;0.88;;
19191;SDS011;9728;48.194;16.346;2023-04-24T08:22:27;2.83;;;0.80;;
19191;SDS011;9728;48.194;16.346;2023-04-24T08:27:30;1.65;;;0.80;;
19191;SDS011;9728;48.194;16.346;2023-04-24T08:32:35;0.80;;;0.80;;
19191;SDS011;9728;48.194;16.346;2023-04-24T08:37:39;1.00;;;0.90;;
19191;SDS011;9728;48.194;16.346;2023-04-24T08:42:43;0.75;;;0.60;;
19191;SDS011;9728;48.194;16.346;2023-04-24T08:47:48;0.70;;;0.70;;
19191;SDS011;9728;48.194;16.346;2023-04-24T08:52:52;0.70;;;0.70;;
19191;SDS011;9728;48.194;16.346;2023-04-24T08:57:56;1.05;;;0.50;;
19191;SDS011;9728;48.194;16.346;2023-04-24T09:03:02;0.40;;;0.40;;
19191;SDS011;9728;48.194;16.346;2023-04-24T09:08:07;0.60;;;0.50;;
19191;SDS011;9728;48.194;16.346;2023-04-24T09:13:12;0.35;;;0.35;;
19191;SDS011;9728;48.194;16.346;2023-04-24T09:18:18;0.65;;;0.45;;
19191;SDS011;9728;48.194;16.346;2023-04-24T09:23:22;0.38;;;0.38;;
19191;SDS011;9728;48.194;16.346;2023-04-24T09:28:26;0.60;;;0.50;;
19191;SDS011;9728;48.194;16.346;2023-04-24T09:33:31;0.47;;;0.40;;
19191;SDS011;9728;48.194;16.346;2023-04-24T09:38:35;0.50;;;0.50;;
19191;SDS011;9728;48.194;16.346;2023-04-24T09:43:39;1.33;;;0.60;;
19191;SDS011;9728;48.194;16.346;2023-04-24T09:48:44;0.50;;;0.50;;
19191;SDS011;9728;48.194;16.346;2023-04-24T09:53:47;1.30;;;0.38;;
19191;SDS011;9728;48.194;16.346;2023-04-24T09:59:03;0.40;;;0.40;;
19191;SDS011;9728;48.194;16.346;2023-04-24T10:04:08;0.52;;;0.40;;
19191;SDS011;9728;48.194;16.346;2023-04-24T10:09:18;0.70;;;0.50;;
19191;SDS011;9728;48.194;16.346;2023-04-24T10:14:23;0.40;;;0.40;;
19191;SDS011;9728;48.194;16.346;2023-04-24T10:19:28;1.15;;;0.40;;
19191;SDS011;9728;48.194;16.346;2023-04-24T10:24:33;2.03;;;1.13;;
19191;SDS011;9728;48.194;16.346;2023-04-24T10:29:38;0.40;;;0.40;;
19191;SDS011;9728;48.194;16.346;2023-04-24T10:34:46;0.65;;;0.43;;
19191;SDS011;9728;48.194;16.346;2023-04-24T10:39:49;0.55;;;0.43;;
19191;SDS011;9728;48.194;16.346;2023-04-24T10:44:56;0.40;;;0.40;;
19191;SDS011;9728;48.194;16.346;2023-04-24T10:50:01;0.63;;;0.50;;
19191;SDS011;9728;48.194;16.346;2023-04-24T10:55:06;0.82;;;0.40;;
19191;SDS011;9728;48.194;16.346;2023-04-24T11:00:10;1.05;;;0.40;;
19191;SDS011;9728;48.194;16.346;2023-04-24T11:05:18;2.10;;;0.70;;
19191;SDS011;9728;48.194;16.346;2023-04-24T11:10:26;0.80;;;0.65;;
19191;SDS011;9728;48.194;16.346;2023-04-24T11:15:29;0.50;;;0.50;;
19191;SDS011;9728;48.194;16.346;2023-04-24T11:20:34;0.60;;;0.50;;
19191;SDS011;9728;48.194;16.346;2023-04-24T11:25:38;0.60;;;0.50;;
19191;SDS011;9728;48.194;16.346;2023-04-24T11:30:41;0.50;;;0.50;;
19191;SDS011;9728;48.194;16.346;2023-04-24T11:35:46;0.52;;;0.50;;
19191;SDS011;9728;48.194;16.346;2023-04-24T11:40:50;0.50;;;0.50;;
19191;SDS011;9728;48.194;16.346;2023-04-24T11:45:54;0.77;;;0.60;;
19191;SDS011;9728;48.194;16.346;2023-04-24T11:50:59;0.50;;;0.50;;
19191;SDS011;9728;48.194;16.346;2023-04-24T11:56:05;1.13;;;0.50;;
19191;SDS011;9728;48.194;16.346;2023-04-24T12:01:08;1.15;;;0.60;;
19191;SDS011;9728;48.194;16.346;2023-04-24T12:06:13;0.50;;;0.50;;
19191;SDS011;9728;48.194;16.346;2023-04-24T12:11:17;1.42;;;0.70;;
19191;SDS011;9728;48.194;16.346;2023-04-24T12:16:21;0.50;;;0.50;;
19191;SDS011;9728;48.194;16.346;2023-04-24T12:21:26;0.57;;;0.50;;
19191;SDS011;9728;48.194;16.346;2023-04-24T12:26:31;0.63;;;0.60;;
19191;SDS011;9728;48.194;16.346;2023-04-24T12:31:35;0.50;;;0.50;;
19191;SDS011;9728;48.194;16.346;2023-04-24T12:36:40;0.50;;;0.50;;
19191;SDS011;9728;48.194;16.346;2023-04-24T12:47:03;0.63;;;0.60;;
19191;SDS011;9728;48.194;16.346;2023-04-24T12:52:08;0.82;;;0.60;;
19191;SDS011;9728;48.194;16.346;2023-04-24T12:57:18;1.05;;;0.80;;
19191;SDS011;9728;48.194;16.346;2023-04-24T13:02:22;0.75;;;0.70;;
19191;SDS011;9728;48.194;16.346;2023-04-24T13:07:27;0.40;;;0.40;;
19191;SDS011;9728;48.194;16.346;2023-04-24T13:12:31;1.73;;;0.70;;
19191;SDS011;9728;48.194;16.346;2023-04-24T13:17:34;1.40;;;0.60;;
19191;SDS011;9728;48.194;16.346;2023-04-24T13:22:39;1.58;;;0.70;;
19191;SDS011;9728;48.194;16.346;2023-04-24T13:27:43;1.73;;;0.80;;
19191;SDS011;9728;48.194;16.346;2023-04-24T13:32:47;0.50;;;0.50;;
19191;SDS011;9728;48.194;16.346;2023-04-24T13:37:52;0.70;;;0.40;;
19191;SDS011;9728;48.194;16.346;2023-04-24T13:42:55;0.82;;;0.60;;
19191;SDS011;9728;48.194;16.346;2023-04-24T13:47:59;1.30;;;0.60;;
19191;SDS011;9728;48.194;16.346;2023-04-24T13:53:05;0.40;;;0.40;;
19191;SDS011;9728;48.194;16.346;2023-04-24T13:58:09;0.60;;;0.60;;
19191;SDS011;9728;48.194;16.346;2023-04-24T14:03:13;1.63;;;0.70;;
19191;SDS011;9728;48.194;16.346;2023-04-24T14:08:19;0.77;;;0.70;;
19191;SDS011;9728;48.194;16.346;2023-04-24T14:13:22;1.58;;;0.93;;
19191;SDS011;9728;48.194;16.346;2023-04-24T14:18:27;0.90;;;0.70;;
19191;SDS011;9728;48.194;16.346;2023-04-24T14:23:32;0.50;;;0.50;;
19191;SDS011;9728;48.194;16.346;2023-04-24T14:28:36;0.90;;;0.70;;
19191;SDS011;9728;48.194;16.346;2023-04-24T14:33:40;0.55;;;0.55;;
19191;SDS011;9728;48.194;16.346;2023-04-24T14:38:45;1.33;;;0.70;;
19191;SDS011;9728;48.194;16.346;2023-04-24T14:43:49;0.70;;;0.70;;
19191;SDS011;9728;48.194;16.346;2023-04-24T14:48:53;0.60;;;0.60;;
19191;SDS011;9728;48.194;16.346;2023-04-24T14:53:58;0.65;;;0.50;;
19191;SDS011;9728;48.194;16.346;2023-04-24T14:59:01;0.80;;;0.50;;
19191;SDS011;9728;48.194;16.346;2023-04-24T15:04:05;0.52;;;0.52;;
19191;SDS011;9728;48.194;16.346;2023-04-24T15:09:10;0.50;;;0.50;;
19191;SDS011;9728;48.194;16.346;2023-04-24T15:14:14;0.47;;;0.47;;
19191;SDS011;9728;48.194;16.346;2023-04-24T15:19:17;2.05;;;0.63;;
19191;SDS011;9728;48.194;16.346;2023-04-24T15:24:22;0.75;;;0.60;;
19191;SDS011;9728;48.194;16.346;2023-04-24T15:29:26;0.65;;;0.65;;
19191;SDS011;9728;48.194;16.346;2023-04-24T15:34:30;4.60;;;1.85;;
19191;SDS011;9728;48.194;16.346;2023-04-24T15:39:35;1.02;;;0.60;;
19191;SDS011;9728;48.194;16.346;2023-04-24T15:44:40;0.95;;;0.75;;
19191;SDS011;9728;48.194;16.346;2023-04-24T15:49:46;0.70;;;0.50;;
19191;SDS011;9728;48.194;16.346;2023-04-24T15:54:51;0.60;;;0.50;;
19191;SDS011;9728;48.194;16.346;2023-04-24T15:59:55;2.13;;;0.70;;
19191;SDS011;9728;48.194;16.346;2023-04-24T16:04:59;1.23;;;0.80;;
19191;SDS011;9728;48.194;16.346;2023-04-24T16:10:04;1.35;;;1.08;;
19191;SDS011;9728;48.194;16.346;2023-04-24T16:15:09;0.90;;;0.68;;
19191;SDS011;9728;48.194;16.346;2023-04-24T16:20:13;1.48;;;0.70;;
19191;SDS011;9728;48.194;16.346;2023-04-24T16:25:19;1.10;;;0.70;;
19191;SDS011;9728;48.194;16.346;2023-04-24T16:30:22;1.10;;;0.60;;
19191;SDS011;9728;48.194;16.346;2023-04-24T16:35:26;1.00;;;0.60;;
19191;SDS011;9728;48.194;16.346;2023-04-24T16:40:31;0.60;;;0.60;;
19191;SDS011;9728;48.194;16.346;2023-04-24T16:45:36;0.43;;;0.43;;
19191;SDS011;9728;48.194;16.346;2023-04-24T16:50:40;0.60;;;0.60;;
19191;SDS011;9728;48.194;16.346;2023-04-24T16:55:45;0.80;;;0.70;;
19191;SDS011;9728;48.194;16.346;2023-04-24T17:00:51;0.75;;;0.60;;
19191;SDS011;9728;48.194;16.346;2023-04-24T17:05:55;0.93;;;0.80;;
19191;SDS011;9728;48.194;16.346;2023-04-24T17:11:00;1.20;;;0.80;;
19191;SDS011;9728;48.194;16.346;2023-04-24T17:16:04;1.08;;;0.82;;
19191;SDS011;9728;48.194;16.346;2023-04-24T17:21:08;1.27;;;0.80;;
19191;SDS011;9728;48.194;16.346;2023-04-24T17:26:13;6.65;;;1.63;;
19191;SDS011;9728;48.194;16.346;2023-04-24T17:31:18;1.58;;;0.98;;
19191;SDS011;9728;48.194;16.346;2023-04-24T17:36:26;1.08;;;0.90;;
19191;SDS011;9728;48.194;16.346;2023-04-24T17:41:33;1.30;;;0.93;;
19191;SDS011;9728;48.194;16.346;2023-04-24T17:46:39;1.08;;;0.95;;
19191;SDS011;9728;48.194;16.346;2023-04-24T17:51:43;1.15;;;1.05;;
19191;SDS011;9728;48.194;16.346;2023-04-24T17:56:49;1.10;;;1.00;;
19191;SDS011;9728;48.194;16.346;2023-04-24T18:01:57;1.00;;;0.90;;
19191;SDS011;9728;48.194;16.346;2023-04-24T18:07:02;1.45;;;0.98;;
19191;SDS011;9728;48.194;16.346;2023-04-24T18:12:07;1.42;;;0.80;;
19191;SDS011;9728;48.194;16.346;2023-04-24T18:17:11;0.80;;;0.77;;
19191;SDS011;9728;48.194;16.346;2023-04-24T18:22:15;1.00;;;0.90;;
19191;SDS011;9728;48.194;16.346;2023-04-24T18:27:22;0.80;;;0.80;;
19191;SDS011;9728;48.194;16.346;2023-04-24T18:32:26;1.20;;;0.80;;
19191;SDS011;9728;48.194;16.346;2023-04-24T18:37:30;0.70;;;0.70;;
19191;SDS011;9728;48.194;16.346;2023-04-24T18:42:37;0.77;;;0.70;;
19191;SDS011;9728;48.194;16.346;2023-04-24T18:47:41;0.95;;;0.80;;
19191;SDS011;9728;48.194;16.346;2023-04-24T18:52:46;1.20;;;0.82;;
19191;SDS011;9728;48.194;16.346;2023-04-24T18:57:52;1.02;;;0.90;;
19191;SDS011;9728;48.194;16.346;2023-04-24T19:02:57;0.70;;;0.70;;
19191;SDS011;9728;48.194;16.346;2023-04-24T19:08:02;1.95;;;1.10;;
19191;SDS011;9728;48.194;16.346;2023-04-24T19:13:08;0.80;;;0.80;;
19191;SDS011;9728;48.194;16.346;2023-04-24T19:18:12;1.30;;;0.82;;
19191;SDS011;9728;48.194;16.346;2023-04-24T19:23:18;0.95;;;0.70;;
19191;SDS011;9728;48.194;16.346;2023-04-24T19:28:24;1.00;;;0.75;;
19191;SDS011;9728;48.194;16.346;2023-04-24T19:33:29;4.28;;;1.17;;
19191;SDS011;9728;48.194;16.346;2023-04-24T19:38:35;2.13;;;0.88;;
19191;SDS011;9728;48.194;16.346;2023-04-24T19:43:41;2.88;;;0.90;;
19191;SDS011;9728;48.194;16.346;2023-04-24T19:48:45;1.30;;;0.88;;
19191;SDS011;9728;48.194;16.346;2023-04-24T19:53:50;1.98;;;0.90;;
19191;SDS011;9728;48.194;16.346;2023-04-24T19:58:56;2.33;;;0.90;;
19191;SDS011;9728;48.194;16.346;2023-04-24T20:04:00;0.85;;;0.80;;
19191;SDS011;9728;48.194;16.346;2023-04-24T20:09:08;2.40;;;1.00;;
19191;SDS011;9728;48.194;16.346;2023-04-24T20:14:14;0.88;;;0.77;;
19191;SDS011;9728;48.194;16.346;2023-04-24T20:19:17;0.73;;;0.70;;
19191;SDS011;9728;48.194;16.346;2023-04-24T20:24:21;1.05;;;0.82;;
19191;SDS011;9728;48.194;16.346;2023-04-24T20:29:26;2.75;;;1.00;;
19191;SDS011;9728;48.194;16.346;2023-04-24T20:34:30;1.80;;;0.60;;
19191;SDS011;9728;48.194;16.346;2023-04-24T20:39:34;3.17;;;0.80;;
19191;SDS011;9728;48.194;16.346;2023-04-24T20:44:40;0.95;;;0.85;;
19191;SDS011;9728;48.194;16.346;2023-04-24T20:49:45;1.10;;;0.70;;
19191;SDS011;9728;48.194;16.346;2023-04-24T20:54:49;2.28;;;0.80;;
19191;SDS011;9728;48.194;16.346;2023-04-24T20:59:54;0.77;;;0.75;;
19191;SDS011;9728;48.194;16.346;2023-04-24T21:04:58;0.70;;;0.70;;
19191;SDS011;9728;48.194;16.346;2023-04-24T21:10:02;3.25;;;0.80;;
19191;SDS011;9728;48.194;16.346;2023-04-24T21:15:07;1.58;;;0.80;;
19191;SDS011;9728;48.194;16.346;2023-04-24T21:20:11;2.17;;;0.90;;
19191;SDS011;9728;48.194;16.346;2023-04-24T21:25:15;0.73;;;0.73;;
19191;SDS011;9728;48.194;16.346;2023-04-24T21:30:21;0.93;;;0.80;;
19191;SDS011;9728;48.194;16.346;2023-04-24T21:35:25;5.05;;;1.60;;
19191;SDS011;9728;48.194;16.346;2023-04-24T21:40:28;0.93;;;0.80;;
19191;SDS011;9728;48.194;16.346;2023-04-24T21:45:33;0.82;;;0.80;;
19191;SDS011;9728;48.194;16.346;2023-04-24T21:50:37;1.30;;;0.90;;
19191;SDS011;9728;48.194;16.346;2023-04-24T21:55:41;1.13;;;1.02;;
19191;SDS011;9728;48.194;16.346;2023-04-24T22:00:46;0.70;;;0.70;;
19191;SDS011;9728;48.194;16.346;2023-04-24T22:05:50;1.00;;;0.80;;
19191;SDS011;9728;48.194;16.346;2023-04-24T22:10:53;1.25;;;1.02;;
19191;SDS011;9728;48.194;16.346;2023-04-24T22:15:58;0.82;;;0.82;;
19191;SDS011;9728;48.194;16.346;2023-04-24T22:21:02;0.70;;;0.70;;
19191;SDS011;9728;48.194;16.346;2023-04-24T22:26:06;0.90;;;0.70;;
19191;SDS011;9728;48.194;16.346;2023-04-24T22:31:11;1.17;;;0.90;;
19191;SDS011;9728;48.194;16.346;2023-04-24T22:36:15;0.88;;;0.88;;
19191;SDS011;9728;48.194;16.346;2023-04-24T22:41:20;0.90;;;0.90;;
19191;SDS011;9728;48.194;16.346;2023-04-24T22:46:25;2.00;;;1.05;;
19191;SDS011;9728;48.194;16.346;2023-04-24T22:51:28;1.20;;;0.90;;
19191;SDS011;9728;48.194;16.346;2023-04-24T22:56:33;1.10;;;0.88;;
19191;SDS011;9728;48.194;16.346;2023-04-24T23:01:39;2.67;;;0.90;;
19191;SDS011;9728;48.194;16.346;2023-04-24T23:06:43;1.10;;;0.80;;
19191;SDS011;9728;48.194;16.346;2023-04-24T23:11:46;1.23;;;0.95;;
19191;SDS011;9728;48.194;16.346;2023-04-24T23:16:51;3.13;;;1.33;;
19191;SDS011;9728;48.194;16.346;2023-04-24T23:21:55;1.15;;;1.02;;
19191;SDS011;9728;48.194;16.346;2023-04-24T23:26:58;0.70;;;0.70;;
19191;SDS011;9728;48.194;16.346;2023-04-24T23:32:04;1.20;;;0.90;;
19191;SDS011;9728;48.194;16.346;2023-04-24T23:37:08;0.93;;;0.80;;
19191;SDS011;9728;48.194;16.346;2023-04-24T23:42:11;0.90;;;0.90;;
19191;SDS011;9728;48.194;16.346;2023-04-24T23:47:16;1.52;;;0.95;;
19191;SDS011;9728;48.194;16.346;2023-04-24T23:52:20;0.75;;;0.75;;
19191;SDS011;9728;48.194;16.346;2023-04-24T23:57:23;1.25;;;0.80;;
